createdAt,value
2019-04-28T00:01:01.960Z,75.74
2019-04-28T00:03:33.245Z,74.98
2019-04-28T00:06:04.587Z,75.22
2019-04-28T00:08:35.901Z,75.18
2019-04-28T00:11:07.227Z,74.82
2019-04-28T00:13:38.500Z,74.84
2019-04-28T00:16:11.452Z,75.48
2019-04-28T00:18:42.911Z,75.24
2019-04-28T00:21:20.984Z,74.63
2019-04-28T00:24:21.122Z,75.33
2019-04-28T00:27:04.252Z,74.65
2019-04-28T00:29:40.851Z,74.81
2019-04-28T00:32:08.532Z,74.90
2019-04-28T00:34:41.200Z,74.59
2019-04-28T00:37:31.918Z,74.67
2019-04-28T00:40:03.625Z,74.72
2019-04-28T00:42:34.904Z,74.55
2019-04-28T00:45:08.378Z,75.49
2019-04-28T00:47:41.273Z,74.75
2019-04-28T00:50:12.851Z,74.69
2019-04-28T00:52:44.158Z,75.06
2019-04-28T00:55:15.491Z,74.42
2019-04-28T00:57:46.806Z,74.19
2019-04-28T01:00:21.513Z,74.27
2019-04-28T01:02:53.309Z,74.73
2019-04-28T01:05:24.793Z,75.20
2019-04-28T01:07:56.047Z,75.02
2019-04-28T01:10:28.020Z,74.21
2019-04-28T01:12:59.344Z,74.27
2019-04-28T01:16:04.426Z,74.05
2019-04-28T01:18:41.750Z,73.41
2019-04-28T01:21:13.004Z,73.95
2019-04-28T01:23:44.223Z,73.65
2019-04-28T01:26:15.485Z,73.94
2019-04-28T01:28:46.741Z,74.18
2019-04-28T01:31:43.767Z,73.33
2019-04-28T01:34:20.634Z,74.03
2019-04-28T01:36:52.163Z,73.70
2019-04-28T01:39:23.474Z,74.24
2019-04-28T01:41:54.766Z,74.80
2019-04-28T01:44:26.072Z,74.06
2019-04-28T01:46:59.485Z,74.63
2019-04-28T01:49:30.373Z,73.90
2019-04-28T01:52:02.457Z,74.62
2019-04-28T01:54:33.730Z,74.68
2019-04-28T01:57:05.086Z,74.06
2019-04-28T01:59:36.423Z,74.28
2019-04-28T02:02:07.708Z,74.51
2019-04-28T02:04:40.184Z,74.54
2019-04-28T02:07:11.722Z,74.82
2019-04-28T02:09:43.051Z,74.09
2019-04-28T02:12:14.354Z,74.91
2019-04-28T02:14:45.631Z,74.14
2019-04-28T02:17:16.934Z,74.43
2019-04-28T02:19:48.299Z,74.70
2019-04-28T02:22:43.050Z,74.90
2019-04-28T02:25:14.373Z,74.81
2019-04-28T02:27:45.710Z,73.90
2019-04-28T02:30:17.015Z,74.56
2019-04-28T02:32:48.299Z,74.06
2019-04-28T02:35:21.345Z,74.80
2019-04-28T02:37:52.595Z,74.61
2019-04-28T02:40:23.864Z,73.93
2019-04-28T02:42:55.189Z,74.80
2019-04-28T02:45:26.481Z,75.36
2019-04-28T02:48:01.242Z,74.90
2019-04-28T02:50:52.542Z,74.89
2019-04-28T02:53:33.227Z,74.56
2019-04-28T02:56:01.950Z,74.69
2019-04-28T02:58:33.260Z,74.88
2019-04-28T03:01:15.259Z,74.86
2019-04-28T03:03:37.577Z,75.26
2019-04-28T03:06:10.798Z,74.93
2019-04-28T03:08:41.873Z,75.07
2019-04-28T03:11:13.146Z,74.99
2019-04-28T03:13:44.445Z,75.72
2019-04-28T03:16:15.766Z,75.66
2019-04-28T03:18:47.085Z,75.09
2019-04-28T03:21:21.177Z,75.10
2019-04-28T03:23:51.915Z,75.56
2019-04-28T03:26:41.377Z,75.99
2019-04-28T03:29:20.522Z,75.71
2019-04-28T03:32:28.638Z,75.52
2019-04-28T03:34:47.497Z,76.28
2019-04-28T03:37:23.620Z,76.37
2019-04-28T03:39:51.886Z,76.58
2019-04-28T03:42:23.292Z,75.85
2019-04-28T03:44:55.935Z,76.30
2019-04-28T03:47:27.235Z,76.31
2019-04-28T03:50:00.076Z,75.51
2019-04-28T03:52:31.952Z,75.29
2019-04-28T03:55:03.249Z,75.40
2019-04-28T03:57:34.550Z,76.33
2019-04-28T04:00:07.391Z,75.92
2019-04-28T04:02:41.221Z,76.19
2019-04-28T04:05:11.801Z,76.81
2019-04-28T04:07:43.386Z,75.81
2019-04-28T04:10:53.977Z,76.26
2019-04-28T04:13:33.031Z,76.05
2019-04-28T04:16:35.077Z,77.12
2019-04-28T04:19:10.435Z,76.59
2019-04-28T04:21:40.964Z,77.05
2019-04-28T04:24:12.227Z,76.70
2019-04-28T04:26:43.515Z,76.69
2019-04-28T04:29:14.858Z,76.25
2019-04-28T04:31:46.152Z,77.04
2019-04-28T04:34:17.458Z,77.16
2019-04-28T04:36:50.880Z,77.00
2019-04-28T04:39:21.811Z,76.71
2019-04-28T04:41:53.121Z,77.05
2019-04-28T04:44:24.406Z,77.67
2019-04-28T04:46:55.711Z,76.98
2019-04-28T04:49:27.002Z,76.80
2019-04-28T04:52:00.412Z,77.10
2019-04-28T04:54:32.747Z,77.70
2019-04-28T04:57:04.305Z,76.66
2019-04-28T04:59:36.981Z,76.31
2019-04-28T05:02:29.310Z,76.68
2019-04-28T05:05:08.154Z,76.78
2019-04-28T05:07:39.667Z,76.29
2019-04-28T05:10:11.008Z,75.86
2019-04-28T05:12:42.287Z,76.50
2019-04-28T05:15:13.656Z,76.34
2019-04-28T05:17:44.952Z,77.13
2019-04-28T05:20:16.253Z,76.97
2019-04-28T05:22:53.622Z,76.85
2019-04-28T05:25:32.547Z,76.08
2019-04-28T05:28:03.595Z,76.52
2019-04-28T05:30:38.891Z,76.93
2019-04-28T05:33:07.829Z,75.81
2019-04-28T05:35:39.732Z,76.12
2019-04-28T05:38:11.089Z,75.82
2019-04-28T05:40:42.373Z,75.65
2019-04-28T05:43:13.648Z,75.69
2019-04-28T05:45:44.958Z,75.74
2019-04-28T05:48:19.997Z,75.48
2019-04-28T05:51:01.823Z,76.10
2019-04-28T05:53:47.350Z,77.10
2019-04-28T05:56:27.485Z,76.70
2019-04-28T05:59:15.478Z,77.15
2019-04-28T06:02:10.328Z,76.82
2019-04-28T06:04:42.529Z,77.18
2019-04-28T06:07:37.402Z,77.36
2019-04-28T06:10:10.155Z,76.76
2019-04-28T06:12:41.960Z,77.37
2019-04-28T06:15:13.344Z,76.90
2019-04-28T06:17:44.622Z,76.70
2019-04-28T06:20:17.224Z,76.99
2019-04-28T06:22:48.518Z,77.24
2019-04-28T06:25:19.846Z,76.58
2019-04-28T06:27:51.116Z,76.36
2019-04-28T06:30:22.588Z,75.65
2019-04-28T06:33:06.786Z,76.04
2019-04-28T06:35:26.907Z,75.99
2019-04-28T06:37:58.209Z,75.64
2019-04-28T06:40:29.520Z,75.08
2019-04-28T06:43:00.827Z,74.95
2019-04-28T06:45:32.133Z,75.58
2019-04-28T06:48:03.406Z,75.07
2019-04-28T06:50:34.705Z,74.50
2019-04-28T06:53:05.975Z,74.95
2019-04-28T06:55:37.244Z,73.76
2019-04-28T06:58:08.554Z,72.95
2019-04-28T07:00:39.858Z,73.28
2019-04-28T07:03:22.646Z,72.84
2019-04-28T07:05:44.147Z,72.34
2019-04-28T07:08:15.465Z,71.90
2019-04-28T07:10:46.781Z,71.91
2019-04-28T07:13:20.587Z,71.15
2019-04-28T07:15:51.039Z,71.11
2019-04-28T07:18:22.338Z,70.34
2019-04-28T07:21:15.188Z,70.74
2019-04-28T07:23:46.484Z,70.05
2019-04-28T07:26:17.797Z,69.15
2019-04-28T07:28:49.103Z,70.66
2019-04-28T07:31:22.046Z,69.75
2019-04-28T07:33:53.383Z,70.62
2019-04-28T07:36:24.642Z,69.33
2019-04-28T07:38:55.979Z,68.99
2019-04-28T07:41:27.260Z,69.22
2019-04-28T07:43:58.569Z,68.06
2019-04-28T07:46:29.936Z,68.25
2019-04-28T07:49:01.179Z,67.28
2019-04-28T07:51:51.365Z,68.33
2019-04-28T07:54:22.876Z,67.65
2019-04-28T07:56:54.150Z,67.66
2019-04-28T07:59:25.429Z,68.01
2019-04-28T08:01:56.709Z,67.16
2019-04-28T08:04:28.007Z,67.77
2019-04-28T08:06:59.284Z,67.05
2019-04-28T08:09:30.595Z,67.01
2019-04-28T08:12:01.923Z,66.91
2019-04-28T08:14:33.284Z,67.31
2019-04-28T08:17:04.683Z,67.21
2019-04-28T08:19:35.965Z,65.92
2019-04-28T08:22:07.299Z,66.25
2019-04-28T08:24:38.614Z,64.77
2019-04-28T08:27:09.872Z,64.47
2019-04-28T08:29:41.177Z,62.78
2019-04-28T08:32:27.653Z,63.32
2019-04-28T08:34:58.982Z,62.95
2019-04-28T08:37:30.303Z,63.64
2019-04-28T08:40:01.593Z,62.48
2019-04-28T08:42:32.877Z,62.41
2019-04-28T08:45:04.341Z,62.55
2019-04-28T08:47:35.659Z,62.40
2019-04-28T08:50:07.188Z,62.83
2019-04-28T08:52:38.518Z,62.20
2019-04-28T08:55:10.028Z,63.27
2019-04-28T08:57:41.360Z,62.84
2019-04-28T09:00:13.518Z,62.83
2019-04-28T09:02:44.839Z,61.81
2019-04-28T09:05:16.358Z,57.13
2019-04-28T09:07:47.684Z,56.74
2019-04-28T09:10:18.990Z,55.66
2019-04-28T09:12:50.289Z,53.52
2019-04-28T09:15:21.571Z,54.91
2019-04-28T09:17:52.886Z,54.03
2019-04-28T09:20:24.229Z,52.49
2019-04-28T09:22:55.587Z,52.76
2019-04-28T09:25:26.897Z,53.70
2019-04-28T09:27:58.198Z,53.26
2019-04-28T09:30:29.725Z,53.79
2019-04-28T09:33:00.998Z,55.40
2019-04-28T09:35:32.329Z,55.42
2019-04-28T09:38:03.642Z,53.81
2019-04-28T09:40:34.981Z,53.31
2019-04-28T09:43:37.428Z,52.31
2019-04-28T09:46:21.607Z,53.29
2019-04-28T09:48:52.926Z,51.95
2019-04-28T09:51:24.230Z,51.02
2019-04-28T09:53:55.538Z,50.66
2019-04-28T09:56:26.972Z,49.85
2019-04-28T09:58:58.331Z,50.64
2019-04-28T10:01:29.595Z,51.56
2019-04-28T10:04:00.903Z,51.72
2019-04-28T10:06:32.195Z,50.95
2019-04-28T10:09:03.971Z,52.07
2019-04-28T10:11:35.310Z,51.53
2019-04-28T10:14:06.597Z,52.17
2019-04-28T10:16:37.900Z,52.64
2019-04-28T10:19:09.221Z,51.35
2019-04-28T10:21:40.480Z,49.71
2019-04-28T10:24:11.813Z,50.33
2019-04-28T10:26:43.136Z,50.03
2019-04-28T10:29:14.444Z,49.23
2019-04-28T10:31:45.750Z,50.26
2019-04-28T10:34:17.035Z,50.17
2019-04-28T10:36:48.356Z,49.86
2019-04-28T10:39:50.406Z,49.20
2019-04-28T10:42:21.717Z,50.79
2019-04-28T10:44:53.258Z,51.38
2019-04-28T10:47:24.636Z,47.30
2019-04-28T10:49:56.635Z,46.82
2019-04-28T10:52:27.933Z,47.52
2019-04-28T10:54:59.230Z,47.87
2019-04-28T10:57:30.451Z,48.72
2019-04-28T11:00:01.876Z,48.97
2019-04-28T11:02:33.116Z,49.23
2019-04-28T11:05:12.545Z,49.46
2019-04-28T11:07:43.814Z,49.50
2019-04-28T11:10:17.390Z,49.42
2019-04-28T11:12:48.900Z,48.97
2019-04-28T11:15:28.640Z,49.32
2019-04-28T11:18:00.556Z,49.48
2019-04-28T11:20:32.412Z,50.13
2019-04-28T11:23:03.874Z,49.95
2019-04-28T11:25:35.161Z,48.79
2019-04-28T11:28:06.601Z,48.62
2019-04-28T11:30:37.913Z,47.72
2019-04-28T11:33:26.833Z,47.03
2019-04-28T11:35:58.219Z,46.31
2019-04-28T11:38:29.572Z,46.15
2019-04-28T11:41:00.923Z,46.83
2019-04-28T11:43:32.223Z,47.05
2019-04-28T11:46:05.032Z,45.93
2019-04-28T11:48:36.323Z,45.33
2019-04-28T11:51:07.630Z,44.14
2019-04-28T11:53:42.506Z,45.27
2019-04-28T11:56:13.902Z,44.97
2019-04-28T11:58:45.282Z,45.82
2019-04-28T12:01:17.747Z,47.22
2019-04-28T12:03:52.265Z,46.43
2019-04-28T12:06:23.603Z,45.78
2019-04-28T12:08:57.722Z,46.74
2019-04-28T12:11:35.023Z,47.06
2019-04-28T12:14:25.405Z,46.50
2019-04-28T12:17:14.344Z,45.84
2019-04-28T12:19:48.270Z,44.53
2019-04-28T12:22:19.765Z,44.21
2019-04-28T12:24:51.136Z,43.01
2019-04-28T12:27:22.507Z,44.09
2019-04-28T12:29:53.857Z,44.49
2019-04-28T12:32:25.225Z,43.87
2019-04-28T12:34:56.642Z,42.64
2019-04-28T12:37:28.034Z,42.02
2019-04-28T12:39:59.451Z,41.92
2019-04-28T12:42:30.786Z,42.57
2019-04-28T12:45:02.065Z,41.76
2019-04-28T12:47:33.425Z,41.69
2019-04-28T12:50:25.850Z,42.08
2019-04-28T12:52:57.142Z,40.14
2019-04-28T12:55:28.419Z,40.70
2019-04-28T12:57:59.762Z,41.59
2019-04-28T13:00:39.500Z,41.84
2019-04-28T13:03:15.608Z,41.89
2019-04-28T13:06:00.204Z,41.05
2019-04-28T13:08:20.631Z,40.58
2019-04-28T13:10:51.992Z,41.03
2019-04-28T13:13:23.292Z,41.00
2019-04-28T13:15:54.594Z,41.92
2019-04-28T13:18:25.897Z,46.63
2019-04-28T13:20:59.030Z,49.08
2019-04-28T13:23:30.245Z,49.34
2019-04-28T13:26:01.550Z,49.82
2019-04-28T13:28:32.950Z,50.52
2019-04-28T13:31:04.293Z,50.11
2019-04-28T13:33:35.759Z,50.84
2019-04-28T13:36:14.588Z,51.43
2019-04-28T13:38:40.233Z,51.69
2019-04-28T13:41:11.665Z,52.80
2019-04-28T13:43:43.078Z,53.22
2019-04-28T13:46:14.421Z,53.62
2019-04-28T13:48:45.829Z,55.04
2019-04-28T13:51:17.105Z,56.40
2019-04-28T13:53:48.419Z,58.29
2019-04-28T13:56:19.801Z,59.38
2019-04-28T13:59:14.666Z,60.02
2019-04-28T14:02:07.952Z,61.76
2019-04-28T14:04:54.783Z,62.58
2019-04-28T14:07:26.076Z,65.81
2019-04-28T14:09:57.326Z,66.10
2019-04-28T14:12:28.654Z,67.27
2019-04-28T14:14:59.981Z,66.76
2019-04-28T14:17:31.301Z,66.13
2019-04-28T14:20:02.650Z,65.80
2019-04-28T14:22:33.953Z,67.32
2019-04-28T14:25:05.539Z,64.15
2019-04-28T14:27:36.844Z,66.59
2019-04-28T14:30:08.508Z,66.09
2019-04-28T14:32:39.825Z,66.33
2019-04-28T14:35:11.310Z,64.44
2019-04-28T14:37:42.693Z,65.11
2019-04-28T14:40:14.246Z,66.84
2019-04-28T14:42:45.560Z,63.92
2019-04-28T14:45:18.007Z,65.23
2019-04-28T14:47:49.455Z,54.50
2019-04-28T14:50:20.831Z,54.56
2019-04-28T14:52:52.095Z,56.46
2019-04-28T14:55:23.420Z,56.93
2019-04-28T14:57:54.731Z,57.01
2019-04-28T15:00:32.447Z,53.52
2019-04-28T15:03:07.573Z,54.81
2019-04-28T15:05:56.354Z,55.02
2019-04-28T15:08:58.646Z,54.91
2019-04-28T15:11:42.786Z,56.77
2019-04-28T15:14:14.113Z,54.84
2019-04-28T15:16:45.529Z,54.53
2019-04-28T15:19:16.932Z,54.80
2019-04-28T15:21:48.370Z,56.56
2019-04-28T15:24:19.718Z,53.16
2019-04-28T15:26:50.967Z,54.08
2019-04-28T15:29:22.297Z,55.11
2019-04-28T15:31:53.630Z,55.35
2019-04-28T15:34:24.886Z,53.59
2019-04-28T15:37:08.917Z,54.11
2019-04-28T15:39:29.354Z,53.87
2019-04-28T15:42:00.798Z,52.93
2019-04-28T15:44:32.194Z,53.85
2019-04-28T15:47:03.648Z,53.46
2019-04-28T15:49:35.117Z,54.96
2019-04-28T15:52:06.635Z,54.17
2019-04-28T15:54:38.030Z,55.43
2019-04-28T15:57:09.340Z,55.92
2019-04-28T15:59:40.741Z,55.41
2019-04-28T16:02:12.343Z,55.12
2019-04-28T16:04:43.811Z,54.79
2019-04-28T16:07:24.772Z,55.04
2019-04-28T16:09:48.558Z,54.57
2019-04-28T16:12:20.155Z,55.26
2019-04-28T16:14:51.718Z,55.47
2019-04-28T16:17:23.262Z,56.16
2019-04-28T16:19:54.764Z,56.57
2019-04-28T16:22:26.142Z,56.48
2019-04-28T16:24:57.469Z,56.27
2019-04-28T16:27:28.804Z,56.22
2019-04-28T16:30:00.158Z,56.04
2019-04-28T16:32:31.504Z,56.03
2019-04-28T16:35:02.911Z,56.08
2019-04-28T16:37:39.074Z,55.17
2019-04-28T16:40:09.642Z,55.56
2019-04-28T16:43:12.379Z,55.72
2019-04-28T16:45:43.708Z,55.80
2019-04-28T16:48:15.091Z,55.05
2019-04-28T16:50:46.558Z,55.02
2019-04-28T16:53:17.993Z,54.59
2019-04-28T16:56:06.837Z,53.62
2019-04-28T16:59:03.342Z,53.84
2019-04-28T17:01:44.846Z,53.40
2019-04-28T17:04:16.460Z,52.52
2019-04-28T17:06:48.079Z,52.37
2019-04-28T17:09:21.343Z,52.63
2019-04-28T17:11:52.989Z,52.80
2019-04-28T17:14:24.611Z,53.08
2019-04-28T17:16:56.193Z,53.14
2019-04-28T17:19:27.757Z,53.38
2019-04-28T17:21:59.247Z,52.85
2019-04-28T17:24:30.841Z,52.43
2019-04-28T17:27:02.353Z,52.34
2019-04-28T17:29:33.935Z,52.91
2019-04-28T17:32:05.393Z,53.08
2019-04-28T17:34:36.862Z,53.29
2019-04-28T17:37:08.662Z,53.38
2019-04-28T17:39:40.275Z,53.64
2019-04-28T17:42:12.696Z,53.91
2019-04-28T17:44:44.357Z,54.36
2019-04-28T17:47:17.616Z,54.85
2019-04-28T17:49:49.191Z,55.28
2019-04-28T17:52:20.788Z,55.67
2019-04-28T17:54:52.417Z,56.00
2019-04-28T17:57:24.032Z,56.20
2019-04-28T17:59:57.515Z,56.82
2019-04-28T18:03:00.031Z,57.48
2019-04-28T18:05:39.960Z,58.21
2019-04-28T18:08:20.792Z,58.61
2019-04-28T18:10:44.903Z,58.83
2019-04-28T18:13:16.561Z,58.96
2019-04-28T18:16:05.629Z,59.06
2019-04-28T18:18:43.401Z,59.24
2019-04-28T18:21:15.034Z,60.11
2019-04-28T18:23:46.691Z,61.46
2019-04-28T18:26:18.321Z,61.96
2019-04-28T18:28:49.900Z,62.50
2019-04-28T18:31:44.067Z,63.05
2019-04-28T18:34:46.513Z,63.57
2019-04-28T18:37:37.075Z,64.23
2019-04-28T18:40:26.339Z,64.70
2019-04-28T18:43:08.235Z,65.56
2019-04-28T18:45:39.928Z,66.68
2019-04-28T18:48:11.576Z,67.49
2019-04-28T18:50:43.217Z,67.89
2019-04-28T18:53:14.864Z,67.99
2019-04-28T18:55:46.475Z,68.50
2019-04-28T18:58:18.141Z,69.16
2019-04-28T19:00:58.000Z,69.55
2019-04-28T19:03:29.620Z,69.67
2019-04-28T19:06:01.285Z,69.80
2019-04-28T19:08:48.871Z,70.25
2019-04-28T19:11:30.235Z,70.72
2019-04-28T19:14:16.740Z,71.00
2019-04-28T19:17:10.281Z,71.35
2019-04-28T19:19:42.471Z,72.09
2019-04-28T19:22:14.064Z,72.28
2019-04-28T19:24:46.261Z,72.21
2019-04-28T19:27:17.961Z,72.49
2019-04-28T19:29:49.654Z,73.11
2019-04-28T19:32:21.331Z,72.84
2019-04-28T19:34:53.016Z,72.27
2019-04-28T19:37:24.716Z,72.27
2019-04-28T19:39:56.436Z,72.54
2019-04-28T19:42:28.146Z,72.66
2019-04-28T19:44:59.820Z,72.80
2019-04-28T19:47:31.441Z,73.04
2019-04-28T19:50:03.127Z,73.75
2019-04-28T19:52:34.760Z,74.40
2019-04-28T19:55:31.933Z,74.57
2019-04-28T19:58:20.897Z,75.02
2019-04-28T20:00:58.965Z,75.41
2019-04-28T20:03:30.518Z,75.04
2019-04-28T20:06:02.250Z,74.57
2019-04-28T20:08:33.889Z,74.43
2019-04-28T20:11:05.437Z,74.79
2019-04-28T20:13:36.967Z,75.76
2019-04-28T20:16:08.476Z,76.40
2019-04-28T20:18:43.307Z,76.74
2019-04-28T20:21:14.741Z,77.16
2019-04-28T20:23:46.131Z,77.34
2019-04-28T20:26:17.461Z,77.48
2019-04-28T20:28:48.697Z,77.61
2019-04-28T20:31:19.975Z,77.87
2019-04-28T20:33:51.345Z,78.10
2019-04-28T20:36:34.423Z,78.32
2019-04-28T20:39:11.598Z,78.56
2019-04-28T20:41:43.005Z,78.62
2019-04-28T20:44:14.311Z,78.89
2019-04-28T20:46:45.649Z,79.11
2019-04-28T20:49:16.978Z,79.32
2019-04-28T20:51:48.298Z,79.39
2019-04-28T20:54:19.594Z,79.53
2019-04-28T20:56:50.908Z,79.64
2019-04-28T20:59:22.218Z,79.71
2019-04-28T21:01:53.516Z,79.66
2019-04-28T21:04:24.810Z,79.80
2019-04-28T21:06:56.088Z,79.88
2019-04-28T21:09:27.421Z,79.88
2019-04-28T21:11:58.728Z,79.97
2019-04-28T21:14:30.014Z,79.78
2019-04-28T21:17:01.314Z,79.90
2019-04-28T21:19:32.678Z,80.16
2019-04-28T21:22:03.955Z,80.49
2019-04-28T21:24:35.240Z,80.79
2019-04-28T21:27:06.582Z,81.01
2019-04-28T21:29:37.883Z,81.17
2019-04-28T21:32:09.196Z,81.23
2019-04-28T21:34:40.481Z,81.40
2019-04-28T21:37:11.792Z,81.77
2019-04-28T21:39:43.098Z,82.09
2019-04-28T21:42:17.447Z,82.31
2019-04-28T21:45:10.440Z,82.54
2019-04-28T21:47:41.804Z,82.76
2019-04-28T21:50:13.071Z,83.09
2019-04-28T21:52:44.415Z,83.29
2019-04-28T21:55:15.716Z,83.37
2019-04-28T21:57:47.348Z,83.20
2019-04-28T22:00:23.965Z,82.78
2019-04-28T22:02:55.206Z,82.55
2019-04-28T22:05:30.590Z,82.48
2019-04-28T22:07:59.514Z,82.46
2019-04-28T22:10:30.799Z,82.59
2019-04-28T22:13:02.109Z,82.71
2019-04-28T22:15:33.480Z,82.86
2019-04-28T22:18:04.906Z,82.72
2019-04-28T22:20:36.197Z,82.70
2019-04-28T22:23:18.278Z,82.82
2019-04-28T22:25:43.790Z,82.89
2019-04-28T22:28:15.068Z,83.02
2019-04-28T22:30:46.357Z,83.21
2019-04-28T22:33:17.650Z,83.29
2019-04-28T22:35:48.967Z,83.40
2019-04-28T22:38:20.289Z,83.58
2019-04-28T22:40:51.626Z,83.86
2019-04-28T22:43:22.908Z,84.25
2019-04-28T22:45:54.246Z,84.32
2019-04-28T22:48:26.652Z,84.55
2019-04-28T22:50:57.934Z,84.68
2019-04-28T22:53:34.479Z,84.75
2019-04-28T22:56:27.860Z,84.77
2019-04-28T22:59:03.831Z,84.95
2019-04-28T23:01:41.447Z,85.05
2019-04-28T23:04:43.509Z,85.00
2019-04-28T23:07:14.980Z,85.17
2019-04-28T23:09:46.253Z,85.48
2019-04-28T23:12:17.531Z,85.64
2019-04-28T23:14:49.001Z,85.71
2019-04-28T23:17:20.745Z,85.69
2019-04-28T23:19:52.137Z,85.85
2019-04-28T23:22:46.042Z,85.86
2019-04-28T23:25:06.660Z,85.76
2019-04-28T23:27:37.957Z,85.86
2019-04-28T23:30:10.487Z,86.19
2019-04-28T23:32:41.788Z,86.47
2019-04-28T23:35:13.227Z,86.62
2019-04-28T23:37:44.503Z,86.54
2019-04-28T23:40:16.240Z,86.27
2019-04-28T23:42:55.734Z,86.24
2019-04-28T23:45:27.057Z,86.39
2019-04-28T23:47:58.334Z,86.54
2019-04-28T23:50:38.594Z,86.32
2019-04-28T23:53:13.160Z,86.40
2019-04-28T23:55:44.466Z,86.83
2019-04-28T23:58:15.773Z,87.50
